Time;durP1;ratioP1;P1;durP2;ratioP2;P2;SDS_P1;SDS_P2;PMS_P1;PMS_P2;Temp;Humidity;BMP_temperature;BMP_pressure;BME280_temperature;BME280_humidity;BME280_pressure;Samples;Min_cycle;Max_cycle;Signal;HPM_P1;HPM_P2
2023/06/07 00:01:55;;;;;;;25.17;18.70;;;;;;;;;;6262885;28;20541;-60
2023/06/07 00:04:55;;;;;;;26.73;18.07;;;;;;;;;;6260812;28;20076;-59
2023/06/07 00:07:56;;;;;;;27.30;17.70;;;;;;;;;;6262695;28;20044;-60
2023/06/07 00:10:57;;;;;;;28.73;17.97;;;;;;;;;;6258298;28;20044;-58
2023/06/07 00:13:59;;;;;;;23.08;17.02;;;;;;;;;;6258031;28;20048;-58
2023/06/07 00:17:00;;;;;;;26.92;17.92;;;;;;;;;;6255283;28;20100;-59
2023/06/07 00:20:01;;;;;;;28.50;18.03;;;;;;;;;;6261104;28;20047;-57
2023/06/07 00:23:02;;;;;;;25.97;17.77;;;;;;;;;;6261008;28;20458;-54
2023/06/07 00:26:02;;;;;;;24.30;17.87;;;;;;;;;;6259808;28;20045;-55
2023/06/07 00:29:03;;;;;;;26.27;17.85;;;;;;;;;;6258895;28;20040;-56
2023/06/07 00:32:04;;;;;;;25.95;18.40;;;;;;;;;;6257039;28;20840;-59
2023/06/07 00:35:07;;;;;;;26.58;18.40;;;;;;;;;;6254565;28;20044;-60
2023/06/07 00:38:08;;;;;;;25.60;17.65;;;;;;;;;;6256851;28;20059;-57
2023/06/07 00:41:09;;;;;;;25.58;17.90;;;;;;;;;;6257342;28;20048;-60
2023/06/07 00:44:12;;;;;;;27.50;17.10;;;;;;;;;;6261013;28;20045;-60
2023/06/07 00:47:12;;;;;;;23.83;16.60;;;;;;;;;;6257947;28;20159;-58
2023/06/07 00:50:14;;;;;;;23.33;16.43;;;;;;;;;;6258714;28;20396;-57
2023/06/07 00:53:15;;;;;;;22.08;16.35;;;;;;;;;;6256888;28;20063;-61
2023/06/07 00:56:17;;;;;;;22.67;15.93;;;;;;;;;;6258025;28;20634;-57
2023/06/07 00:59:18;;;;;;;21.52;15.90;;;;;;;;;;6256858;28;20041;-58
2023/06/07 01:02:19;;;;;;;;;;;;;;;;;;6262922;28;20098;-60
2023/06/07 01:05:20;;;;;;;21.60;15.55;;;;;;;;;;6259667;28;20371;-57
2023/06/07 01:08:21;;;;;;;20.95;15.00;;;;;;;;;;6256778;28;20408;-58
2023/06/07 01:11:24;;;;;;;23.00;14.97;;;;;;;;;;6256822;28;20055;-59
2023/06/07 01:14:25;;;;;;;21.50;15.63;;;;;;;;;;6252094;28;20063;-59
2023/06/07 01:17:26;;;;;;;20.52;15.15;;;;;;;;;;6255847;28;20037;-57
2023/06/07 01:20:27;;;;;;;;;;;;;;;;;;6257295;28;20108;-58
2023/06/07 01:23:32;;;;;;;21.92;15.52;;;;;;;;;;6255084;28;19920;-59
2023/06/07 01:26:33;;;;;;;21.10;15.68;;;;;;;;;;6256338;28;20479;-48
2023/06/07 01:29:34;;;;;;;24.77;16.73;;;;;;;;;;6256776;28;20052;-55
2023/06/07 01:32:36;;;;;;;22.58;16.30;;;;;;;;;;6255633;28;20550;-56
2023/06/07 01:35:38;;;;;;;;;;;;;;;;;;6256089;28;20045;-56
2023/06/07 01:38:39;;;;;;;;;;;;;;;;;;6257089;28;19925;-58
2023/06/07 01:41:41;;;;;;;23.23;15.60;;;;;;;;;;6256938;28;19924;-58
2023/06/07 01:44:45;;;;;;;22.35;15.00;;;;;;;;;;6255904;28;20041;-58
2023/06/07 01:47:45;;;;;;;22.50;14.75;;;;;;;;;;6255240;28;20033;-58
2023/06/07 01:50:46;;;;;;;22.38;14.63;;;;;;;;;;6254929;28;20143;-59
2023/06/07 01:53:48;;;;;;;22.70;14.63;;;;;;;;;;6252604;28;20052;-59
2023/06/07 01:57:20;;;;;;;22.35;14.90;;;;;;;;;;6257383;28;20037;-59
2023/06/07 02:00:43;;;;;;;19.98;14.32;;;;;;;;;;6260326;28;20069;-58
2023/06/07 02:03:48;;;;;;;20.23;14.05;;;;;;;;;;6257665;28;20406;-58
2023/06/07 02:06:51;;;;;;;19.77;14.70;;;;;;;;;;6259684;28;20614;-59
2023/06/07 02:09:53;;;;;;;20.15;14.10;;;;;;;;;;6257433;28;20132;-59
2023/06/07 02:12:54;;;;;;;19.60;14.60;;;;;;;;;;6260790;28;20540;-57
2023/06/07 02:15:55;;;;;;;19.73;14.45;;;;;;;;;;6260036;28;20053;-59
2023/06/07 02:18:57;;;;;;;20.27;14.43;;;;;;;;;;6258292;28;20029;-58
2023/06/07 02:21:58;;;;;;;21.77;14.15;;;;;;;;;;6259894;28;20045;-51
2023/06/07 02:24:58;;;;;;;21.70;15.60;;;;;;;;;;6261071;28;20059;-58
2023/06/07 02:27:59;;;;;;;21.40;14.82;;;;;;;;;;6262913;28;20060;-60
2023/06/07 02:30:59;;;;;;;23.30;15.18;;;;;;;;;;6260800;28;20048;-55
2023/06/07 02:34:00;;;;;;;21.85;16.25;;;;;;;;;;6259793;28;20075;-58
2023/06/07 02:37:00;;;;;;;25.48;16.75;;;;;;;;;;6258204;28;20033;-53
2023/06/07 02:40:04;;;;;;;23.17;15.13;;;;;;;;;;6258566;28;20168;-56
2023/06/07 02:43:04;;;;;;;25.48;16.63;;;;;;;;;;6257273;28;20040;-58
2023/06/07 02:46:06;;;;;;;24.42;17.10;;;;;;;;;;6257915;28;20279;-60
2023/06/07 02:49:07;;;;;;;21.92;16.05;;;;;;;;;;6257045;28;20042;-56
2023/06/07 02:52:10;;;;;;;26.25;18.00;;;;;;;;;;6258352;28;20102;-51
2023/06/07 02:55:10;;;;;;;26.75;17.10;;;;;;;;;;6261407;28;20135;-59
2023/06/07 02:58:11;;;;;;;25.75;17.45;;;;;;;;;;6259448;28;20064;-60
2023/06/07 03:01:11;;;;;;;22.33;16.47;;;;;;;;;;6258272;28;20376;-56
2023/06/07 03:04:12;;;;;;;20.63;15.07;;;;;;;;;;6258003;28;20052;-53
2023/06/07 03:07:13;;;;;;;21.83;16.20;;;;;;;;;;6258042;28;20047;-51
2023/06/07 03:10:14;;;;;;;21.03;16.20;;;;;;;;;;6260090;28;20063;-56
2023/06/07 03:13:14;;;;;;;21.60;15.47;;;;;;;;;;6258558;28;20041;-58
2023/06/07 03:16:16;;;;;;;21.77;15.25;;;;;;;;;;6256976;28;20049;-58
2023/06/07 03:19:16;;;;;;;23.20;15.37;;;;;;;;;;6258736;28;20143;-57
2023/06/07 03:22:17;;;;;;;19.73;14.15;;;;;;;;;;6258891;28;20049;-59
2023/06/07 03:25:18;;;;;;;22.23;14.87;;;;;;;;;;6255358;28;20509;-55
2023/06/07 03:28:18;;;;;;;21.20;15.03;;;;;;;;;;6256288;28;20037;-56
2023/06/07 03:31:19;;;;;;;23.60;14.90;;;;;;;;;;6258849;28;20037;-57
2023/06/07 03:34:21;;;;;;;21.65;14.90;;;;;;;;;;6261795;28;20064;-53
2023/06/07 03:37:21;;;;;;;21.67;14.82;;;;;;;;;;6255340;28;22255;-59
2023/06/07 03:40:22;;;;;;;20.55;14.85;;;;;;;;;;6255467;28;20051;-58
2023/06/07 03:43:23;;;;;;;22.23;14.68;;;;;;;;;;6257661;28;20072;-56
2023/06/07 03:46:23;;;;;;;23.37;15.87;;;;;;;;;;6257527;28;20068;-60
2023/06/07 03:49:24;;;;;;;19.98;14.18;;;;;;;;;;6256780;28;20041;-57
2023/06/07 03:52:25;;;;;;;22.38;14.23;;;;;;;;;;6257157;28;20071;-59
2023/06/07 03:55:25;;;;;;;25.98;16.02;;;;;;;;;;6256888;28;20061;-59
2023/06/07 03:58:26;;;;;;;25.13;14.87;;;;;;;;;;6260407;28;20052;-50
2023/06/07 04:01:27;;;;;;;21.77;14.50;;;;;;;;;;6258657;28;20045;-58
2023/06/07 04:04:29;;;;;;;23.38;14.32;;;;;;;;;;6257756;28;20055;-59
2023/06/07 04:07:30;;;;;;;23.17;15.27;;;;;;;;;;6258013;28;20045;-53
2023/06/07 04:10:30;;;;;;;21.65;14.98;;;;;;;;;;6258804;28;20132;-57
2023/06/07 04:13:31;;;;;;;24.48;15.60;;;;;;;;;;6258375;28;20449;-59
2023/06/07 04:16:32;;;;;;;26.67;16.70;;;;;;;;;;6256138;28;20087;-62
2023/06/07 04:19:32;;;;;;;25.80;17.02;;;;;;;;;;6255778;28;20480;-58
2023/06/07 04:22:35;;;;;;;25.27;18.20;;;;;;;;;;6257487;28;20600;-59
2023/06/07 04:25:36;;;;;;;32.15;21.17;;;;;;;;;;6289269;28;20061;-58
2023/06/07 04:28:37;;;;;;;30.90;20.77;;;;;;;;;;6256822;28;20414;-57
2023/06/07 04:31:39;;;;;;;30.67;19.87;;;;;;;;;;6257175;28;20041;-59
2023/06/07 04:34:41;;;;;;;38.67;23.88;;;;;;;;;;6257915;28;20471;-51
2023/06/07 04:37:45;;;;;;;34.72;25.00;;;;;;;;;;6260842;28;20439;-57
2023/06/07 04:40:50;;;;;;;36.08;26.20;;;;;;;;;;6258681;28;20033;-59
2023/06/07 04:43:51;;;;;;;35.28;24.10;;;;;;;;;;6259182;28;20135;-56
2023/06/07 04:46:55;;;;;;;34.50;24.27;;;;;;;;;;6260907;28;20037;-58
2023/06/07 04:49:56;;;;;;;37.10;24.00;;;;;;;;;;6260228;28;20495;-55
2023/06/07 04:53:00;;;;;;;33.40;23.47;;;;;;;;;;6263519;28;20118;-57
2023/06/07 04:56:01;;;;;;;34.63;22.48;;;;;;;;;;6258641;28;20079;-57
2023/06/07 04:59:02;;;;;;;35.37;23.23;;;;;;;;;;6256166;28;20072;-54
2023/06/07 05:02:03;;;;;;;33.93;24.57;;;;;;;;;;6256977;28;20127;-56
2023/06/07 05:05:04;;;;;;;38.30;25.30;;;;;;;;;;6256667;28;20375;-61
2023/06/07 05:08:05;;;;;;;36.67;24.30;;;;;;;;;;6255497;28;20041;-49
2023/06/07 05:11:06;;;;;;;35.55;23.55;;;;;;;;;;6260790;28;20484;-59
2023/06/07 05:14:06;;;;;;;34.30;22.67;;;;;;;;;;6256630;28;20059;-56
2023/06/07 05:17:07;;;;;;;32.23;22.23;;;;;;;;;;6255420;28;20041;-53
2023/06/07 05:20:12;;;;;;;32.00;21.53;;;;;;;;;;6259558;28;20470;-56
2023/06/07 05:23:16;;;;;;;27.90;19.35;;;;;;;;;;6261207;28;20144;-55
2023/06/07 05:26:17;;;;;;;27.65;17.70;;;;;;;;;;6254728;28;20468;-56
2023/06/07 05:29:17;;;;;;;25.43;18.17;;;;;;;;;;6259889;28;20060;-55
2023/06/07 05:32:18;;;;;;;21.87;15.60;;;;;;;;;;6264041;28;20041;-57
2023/06/07 05:35:18;;;;;;;28.67;17.10;;;;;;;;;;6265188;28;20483;-59
2023/06/07 05:38:19;;;;;;;27.17;16.67;;;;;;;;;;6267075;28;20045;-58
2023/06/07 05:41:20;;;;;;;23.57;16.60;;;;;;;;;;6248586;28;20495;-50
2023/06/07 05:44:20;;;;;;;24.90;16.70;;;;;;;;;;6268501;28;20075;-56
2023/06/07 05:47:25;;;;;;;25.67;17.33;;;;;;;;;;6255009;28;20058;-46
2023/06/07 05:50:25;;;;;;;23.73;15.93;;;;;;;;;;6254940;28;20033;-57
2023/06/07 05:53:26;;;;;;;28.27;17.77;;;;;;;;;;6268218;28;20071;-50
2023/06/07 05:56:27;;;;;;;24.03;16.30;;;;;;;;;;6264463;28;20408;-59
2023/06/07 05:59:28;;;;;;;25.83;15.77;;;;;;;;;;6258209;28;20048;-52
2023/06/07 06:02:29;;;;;;;19.13;13.50;;;;;;;;;;6257049;28;20033;-59
2023/06/07 06:05:30;;;;;;;25.60;15.95;;;;;;;;;;6256912;28;20047;-57
2023/06/07 06:08:30;;;;;;;25.83;16.97;;;;;;;;;;6259771;28;20049;-59
2023/06/07 06:11:31;;;;;;;21.87;15.07;;;;;;;;;;6258583;28;20085;-51
2023/06/07 06:14:32;;;;;;;24.37;15.83;;;;;;;;;;6255921;28;20063;-55
2023/06/07 06:17:32;;;;;;;27.63;17.93;;;;;;;;;;6256561;28;20041;-56
2023/06/07 06:20:34;;;;;;;25.37;16.63;;;;;;;;;;6260275;28;20492;-48
2023/06/07 06:23:35;;;;;;;28.63;18.25;;;;;;;;;;6258406;28;20067;-55
2023/06/07 06:26:36;;;;;;;29.65;18.30;;;;;;;;;;6257640;28;20107;-53
2023/06/07 06:29:36;;;;;;;26.60;17.77;;;;;;;;;;6257389;28;20179;-59
2023/06/07 06:32:37;;;;;;;26.73;16.33;;;;;;;;;;6257313;28;20053;-55
2023/06/07 06:35:38;;;;;;;28.43;17.50;;;;;;;;;;6256482;28;20408;-55
2023/06/07 06:38:39;;;;;;;25.03;17.47;;;;;;;;;;6255976;28;20036;-55
2023/06/07 06:41:40;;;;;;;27.97;17.67;;;;;;;;;;6256695;28;20487;-60
2023/06/07 06:44:40;;;;;;;31.47;17.60;;;;;;;;;;6261955;28;20056;-52
2023/06/07 06:47:41;;;;;;;22.70;15.77;;;;;;;;;;6263411;28;20060;-56
2023/06/07 06:50:43;;;;;;;23.10;16.07;;;;;;;;;;6258642;28;20392;-53
2023/06/07 06:53:44;;;;;;;21.27;13.85;;;;;;;;;;6259563;28;20044;-59
2023/06/07 06:56:44;;;;;;;22.10;14.53;;;;;;;;;;6256782;28;20056;-60
2023/06/07 06:59:45;;;;;;;18.80;13.93;;;;;;;;;;6257942;28;20083;-59
2023/06/07 07:02:45;;;;;;;18.30;13.20;;;;;;;;;;6258446;28;20037;-52
2023/06/07 07:05:46;;;;;;;23.27;13.23;;;;;;;;;;6254501;28;20500;-57
2023/06/07 07:08:46;;;;;;;21.70;12.50;;;;;;;;;;6259003;28;20052;-53
2023/06/07 07:11:47;;;;;;;21.63;13.00;;;;;;;;;;6256107;28;20049;-54
2023/06/07 07:14:48;;;;;;;19.97;13.07;;;;;;;;;;6256465;28;20495;-57
2023/06/07 07:17:50;;;;;;;21.07;12.97;;;;;;;;;;6254537;28;20044;-56
2023/06/07 07:20:50;;;;;;;18.80;13.10;;;;;;;;;;6255032;28;20045;-54
2023/06/07 07:23:51;;;;;;;20.07;12.60;;;;;;;;;;6259835;28;20049;-55
2023/06/07 07:26:51;;;;;;;14.97;10.77;;;;;;;;;;6254941;28;20072;-56
2023/06/07 07:29:52;;;;;;;13.60;9.40;;;;;;;;;;6256040;28;20086;-56
2023/06/07 07:32:53;;;;;;;14.13;9.60;;;;;;;;;;6257825;28;20044;-54
2023/06/07 07:35:54;;;;;;;14.32;8.82;;;;;;;;;;6252811;28;20049;-58
2023/06/07 07:38:57;;;;;;;14.00;8.93;;;;;;;;;;6258350;28;20906;-59
2023/06/07 07:41:57;;;;;;;13.68;8.48;;;;;;;;;;6257771;28;20037;-52
2023/06/07 07:44:58;;;;;;;12.60;8.33;;;;;;;;;;6252988;28;20048;-60
2023/06/07 07:47:58;;;;;;;14.80;8.37;;;;;;;;;;6252001;28;20084;-56
2023/06/07 07:50:59;;;;;;;10.30;6.60;;;;;;;;;;6254378;28;20030;-56
2023/06/07 07:54:00;;;;;;;10.50;7.07;;;;;;;;;;6250518;28;20056;-52
2023/06/07 07:57:01;;;;;;;13.97;7.40;;;;;;;;;;6249790;28;20487;-53
2023/06/07 08:00:04;;;;;;;10.87;7.07;;;;;;;;;;6252902;28;20512;-56
2023/06/07 08:03:05;;;;;;;9.57;6.53;;;;;;;;;;6253037;28;20068;-56
2023/06/07 08:06:06;;;;;;;11.13;6.70;;;;;;;;;;6252628;28;20037;-57
2023/06/07 08:09:06;;;;;;;11.17;5.23;;;;;;;;;;6254306;28;20112;-50
2023/06/07 08:12:08;;;;;;;7.03;4.90;;;;;;;;;;6254276;28;20036;-54
2023/06/07 08:15:09;;;;;;;;;;;;;;;;;;6252881;28;20049;-55
2023/06/07 08:18:10;;;;;;;7.93;4.25;;;;;;;;;;6249627;28;19952;-57
2023/06/07 08:21:11;;;;;;;7.30;4.40;;;;;;;;;;6257609;28;20061;-57
2023/06/07 08:24:12;;;;;;;9.25;5.40;;;;;;;;;;6256700;28;20626;-59
2023/06/07 08:27:13;;;;;;;10.67;4.30;;;;;;;;;;6248932;28;20045;-58
2023/06/07 08:30:14;;;;;;;6.53;4.27;;;;;;;;;;6253739;28;20064;-55
2023/06/07 08:33:15;;;;;;;7.90;4.40;;;;;;;;;;6249781;28;20037;-55
2023/06/07 08:36:16;;;;;;;11.27;4.45;;;;;;;;;;6251186;28;20071;-57
2023/06/07 08:39:16;;;;;;;8.57;4.60;;;;;;;;;;6254868;28;20033;-56
2023/06/07 08:42:17;;;;;;;9.30;4.87;;;;;;;;;;6252955;28;20557;-57
2023/06/07 08:45:17;;;;;;;7.57;4.80;;;;;;;;;;6252319;28;20067;-56
2023/06/07 08:48:20;;;;;;;7.57;5.07;;;;;;;;;;6252555;28;20082;-56
2023/06/07 08:51:21;;;;;;;7.57;5.20;;;;;;;;;;6255382;28;20484;-58
2023/06/07 08:54:26;;;;;;;10.48;5.10;;;;;;;;;;6257621;28;20051;-54
2023/06/07 08:57:28;;;;;;;7.88;5.40;;;;;;;;;;6258273;28;20041;-58
2023/06/07 09:00:29;;;;;;;7.47;5.20;;;;;;;;;;6263598;28;20053;-55
2023/06/07 09:03:29;;;;;;;10.77;5.30;;;;;;;;;;6256958;28;20400;-59
2023/06/07 09:06:33;;;;;;;9.77;5.50;;;;;;;;;;6251974;28;20098;-59
2023/06/07 09:09:40;;;;;;;9.13;5.60;;;;;;;;;;6252946;28;20049;-58
2023/06/07 09:12:40;;;;;;;8.32;5.78;;;;;;;;;;6252526;28;20052;-58
2023/06/07 09:15:41;;;;;;;10.00;6.83;;;;;;;;;;6252247;28;20049;-59
2023/06/07 09:18:55;;;;;;;13.93;7.00;;;;;;;;;;6254409;28;20064;-57
2023/06/07 09:21:56;;;;;;;10.20;6.82;;;;;;;;;;6250875;28;20044;-57
2023/06/07 09:25:06;;;;;;;11.63;6.53;;;;;;;;;;6254145;28;20056;-59
2023/06/07 09:28:12;;;;;;;10.17;6.70;;;;;;;;;;6252535;28;20079;-59
2023/06/07 09:31:28;;;;;;;10.55;6.13;;;;;;;;;;6254449;28;20462;-59
2023/06/07 09:34:30;;;;;;;12.18;6.38;;;;;;;;;;6255661;28;20056;-59
2023/06/07 09:37:42;;;;;;;9.52;6.65;;;;;;;;;;6251168;28;20055;-60
2023/06/07 09:40:50;;;;;;;11.13;6.95;;;;;;;;;;6251346;28;20507;-59
2023/06/07 09:43:51;;;;;;;8.75;6.00;;;;;;;;;;6249862;28;20544;-59
2023/06/07 09:46:52;;;;;;;9.37;6.07;;;;;;;;;;6254284;28;20102;-60
2023/06/07 09:50:05;;;;;;;9.10;5.97;;;;;;;;;;6249809;28;20136;-56
2023/06/07 09:53:06;;;;;;;13.23;6.10;;;;;;;;;;6251095;28;20416;-60
2023/06/07 09:56:16;;;;;;;7.87;5.60;;;;;;;;;;6250907;28;20052;-54
2023/06/07 09:59:16;;;;;;;9.82;6.07;;;;;;;;;;6253092;28;20060;-59
2023/06/07 10:02:28;;;;;;;8.90;5.97;;;;;;;;;;6251635;28;20053;-57
2023/06/07 10:05:29;;;;;;;7.95;5.32;;;;;;;;;;6251519;28;20049;-57
2023/06/07 10:08:31;;;;;;;9.43;5.15;;;;;;;;;;6252795;28;20113;-59
2023/06/07 10:11:34;;;;;;;6.95;4.47;;;;;;;;;;6248710;28;20084;-60
2023/06/07 10:14:36;;;;;;;7.75;4.30;;;;;;;;;;6253371;28;20140;-57
2023/06/07 10:18:00;;;;;;;8.27;6.15;;;;;;;;;;6253953;28;20138;-59
2023/06/07 10:21:06;;;;;;;11.10;6.10;;;;;;;;;;6258980;28;20041;-59
2023/06/07 10:24:11;;;;;;;9.45;5.72;;;;;;;;;;6255692;28;20286;-54
2023/06/07 10:27:21;;;;;;;8.23;6.28;;;;;;;;;;6255897;28;20051;-53
2023/06/07 10:30:25;;;;;;;10.02;6.95;;;;;;;;;;6257358;28;20122;-57
2023/06/07 10:33:26;;;;;;;11.25;8.00;;;;;;;;;;6255823;28;20567;-56
2023/06/07 10:36:27;;;;;;;10.93;7.03;;;;;;;;;;6254804;28;20099;-59
2023/06/07 10:39:28;;;;;;;10.40;7.22;;;;;;;;;;6261686;28;20048;-56
2023/06/07 10:42:29;;;;;;;12.00;7.90;;;;;;;;;;6255084;28;20491;-54
2023/06/07 10:45:29;;;;;;;11.18;7.65;;;;;;;;;;6253325;28;20056;-55
2023/06/07 10:48:33;;;;;;;11.57;7.47;;;;;;;;;;6256371;28;20061;-55
2023/06/07 10:51:51;;;;;;;11.88;6.85;;;;;;;;;;6256077;28;20144;-61
2023/06/07 10:54:52;;;;;;;9.93;6.57;;;;;;;;;;6254960;28;20076;-51
2023/06/07 10:57:54;;;;;;;9.18;6.53;;;;;;;;;;6256524;28;20082;-57
2023/06/07 11:00:55;;;;;;;10.20;6.30;;;;;;;;;;6263563;28;20048;-57
2023/06/07 11:03:56;;;;;;;10.50;6.43;;;;;;;;;;6263149;28;20052;-58
2023/06/07 11:07:32;;;;;;;9.27;5.57;;;;;;;;;;6258561;28;20041;-54
2023/06/07 11:10:34;;;;;;;9.00;5.72;;;;;;;;;;6241785;28;20322;-57
2023/06/07 11:13:43;;;;;;;8.77;5.65;;;;;;;;;;6253010;28;20407;-57
2023/06/07 11:16:44;;;;;;;7.07;5.20;;;;;;;;;;6254242;28;20394;-62
2023/06/07 11:19:55;;;;;;;9.60;4.83;;;;;;;;;;6252915;28;20462;-54
2023/06/07 11:23:21;;;;;;;8.13;5.15;;;;;;;;;;6253494;28;20827;-56
2023/06/07 11:26:22;;;;;;;8.05;4.88;;;;;;;;;;6252830;28;20438;-53
2023/06/07 11:29:23;;;;;;;6.10;4.67;;;;;;;;;;6255517;28;20049;-53
2023/06/07 11:32:23;;;;;;;7.40;4.87;;;;;;;;;;6257003;28;20507;-50
2023/06/07 11:35:24;;;;;;;10.03;4.93;;;;;;;;;;6256058;28;20053;-58
2023/06/07 11:38:26;;;;;;;8.50;5.47;;;;;;;;;;6252609;28;20076;-57
2023/06/07 11:41:27;;;;;;;17.23;8.30;;;;;;;;;;6251961;28;20419;-59
2023/06/07 11:44:28;;;;;;;14.23;8.13;;;;;;;;;;6253856;28;20040;-56
2023/06/07 11:47:29;;;;;;;12.77;5.80;;;;;;;;;;6253170;28;20033;-54
2023/06/07 11:50:30;;;;;;;7.63;5.07;;;;;;;;;;6251848;28;20110;-58
2023/06/07 11:53:31;;;;;;;8.67;5.10;;;;;;;;;;6254139;28;20095;-56
2023/06/07 11:56:36;;;;;;;8.63;5.20;;;;;;;;;;6254127;28;20503;-57
2023/06/07 11:59:39;;;;;;;9.70;5.22;;;;;;;;;;6254993;28;20523;-59
2023/06/07 12:02:39;;;;;;;9.45;5.40;;;;;;;;;;6254948;28;20059;-57
2023/06/07 12:05:40;;;;;;;6.65;4.70;;;;;;;;;;6254043;28;20080;-59
2023/06/07 12:08:41;;;;;;;11.60;5.73;;;;;;;;;;6255336;28;20068;-57
2023/06/07 12:11:42;;;;;;;8.47;4.80;;;;;;;;;;6253990;28;20052;-55
2023/06/07 12:14:45;;;;;;;7.97;4.67;;;;;;;;;;6253763;28;20052;-56
2023/06/07 12:17:46;;;;;;;7.40;5.07;;;;;;;;;;6250015;28;20053;-57
2023/06/07 12:20:47;;;;;;;7.23;4.37;;;;;;;;;;6257347;28;20102;-59
2023/06/07 12:23:51;;;;;;;7.90;4.90;;;;;;;;;;6252319;28;20056;-56
2023/06/07 12:26:56;;;;;;;10.52;5.72;;;;;;;;;;6252728;28;20130;-57
2023/06/07 12:29:57;;;;;;;7.93;5.03;;;;;;;;;;6251417;28;20045;-59
2023/06/07 12:32:59;;;;;;;9.75;5.63;;;;;;;;;;6257093;28;20140;-56
2023/06/07 12:36:01;;;;;;;7.38;5.07;;;;;;;;;;6251864;28;20047;-52
2023/06/07 12:39:07;;;;;;;7.13;5.47;;;;;;;;;;6252235;28;20045;-58
2023/06/07 12:42:08;;;;;;;8.38;4.95;;;;;;;;;;6254335;28;21474;-57
2023/06/07 12:45:09;;;;;;;7.90;4.80;;;;;;;;;;6262038;28;20049;-54
2023/06/07 12:48:10;;;;;;;8.75;4.93;;;;;;;;;;6256610;28;20045;-60
2023/06/07 12:51:11;;;;;;;7.87;5.40;;;;;;;;;;6253450;28;20498;-57
2023/06/07 12:54:12;;;;;;;9.02;5.10;;;;;;;;;;6253150;28;20126;-55
2023/06/07 12:57:12;;;;;;;7.85;4.85;;;;;;;;;;6253240;28;20041;-57
2023/06/07 13:00:15;;;;;;;9.00;4.70;;;;;;;;;;6253058;28;20131;-58
2023/06/07 13:03:17;;;;;;;9.07;5.10;;;;;;;;;;6253397;28;20415;-55
2023/06/07 13:06:19;;;;;;;7.20;4.25;;;;;;;;;;6254463;28;20643;-56
2023/06/07 13:09:20;;;;;;;5.80;4.00;;;;;;;;;;6256081;28;20087;-60
2023/06/07 13:12:21;;;;;;;9.52;4.70;;;;;;;;;;6255851;28;20110;-56
2023/06/07 13:15:22;;;;;;;7.80;4.70;;;;;;;;;;6258052;28;20045;-55
2023/06/07 13:18:23;;;;;;;11.20;5.00;;;;;;;;;;6256623;28;20030;-58
2023/06/07 13:21:23;;;;;;;8.47;5.30;;;;;;;;;;6249900;28;20079;-53
2023/06/07 13:24:24;;;;;;;8.05;4.70;;;;;;;;;;6250630;28;20090;-57
2023/06/07 13:27:26;;;;;;;10.00;5.03;;;;;;;;;;6253181;28;20045;-59
2023/06/07 13:30:27;;;;;;;8.73;5.20;;;;;;;;;;6251820;28;20090;-58
2023/06/07 13:33:28;;;;;;;7.30;4.70;;;;;;;;;;6253675;28;20045;-58
2023/06/07 13:36:28;;;;;;;9.37;5.00;;;;;;;;;;6251092;28;20124;-56
2023/06/07 13:39:29;;;;;;;7.50;4.90;;;;;;;;;;6251785;28;21184;-56
2023/06/07 13:42:30;;;;;;;7.63;4.85;;;;;;;;;;6255204;28;20050;-57
2023/06/07 13:45:30;;;;;;;8.40;5.03;;;;;;;;;;6256713;28;20436;-55
2023/06/07 13:48:32;;;;;;;5.95;4.38;;;;;;;;;;6256901;28;20127;-52
2023/06/07 13:51:35;;;;;;;9.80;5.32;;;;;;;;;;6255354;28;20403;-59
2023/06/07 13:54:36;;;;;;;9.13;5.50;;;;;;;;;;6259285;28;20467;-60
2023/06/07 13:57:36;;;;;;;6.93;5.27;;;;;;;;;;6256793;28;20045;-60
2023/06/07 14:00:37;;;;;;;12.47;5.73;;;;;;;;;;6255270;28;20053;-56
2023/06/07 14:03:38;;;;;;;10.33;6.23;;;;;;;;;;6255191;28;20313;-60
2023/06/07 14:06:39;;;;;;;;;;;;;;;;;;6259553;28;20282;-59
2023/06/07 14:09:39;;;;;;;11.43;6.60;;;;;;;;;;6257135;28;19983;-60
2023/06/07 14:12:40;;;;;;;8.70;5.67;;;;;;;;;;6256844;28;20426;-60
2023/06/07 14:15:41;;;;;;;8.83;5.13;;;;;;;;;;6262659;28;20294;-56
2023/06/07 14:18:41;;;;;;;6.57;5.22;;;;;;;;;;6258524;28;20045;-61
2023/06/07 14:21:42;;;;;;;25.23;6.50;;;;;;;;;;6257614;28;20041;-60
2023/06/07 14:24:43;;;;;;;8.30;4.85;;;;;;;;;;6255993;28;21388;-57
2023/06/07 14:27:44;;;;;;;9.97;4.50;;;;;;;;;;6256270;28;20361;-59
2023/06/07 14:30:44;;;;;;;6.55;4.60;;;;;;;;;;6261830;28;20091;-54
2023/06/07 14:33:45;;;;;;;6.80;4.70;;;;;;;;;;6257569;28;20629;-57
2023/06/07 14:36:46;;;;;;;7.35;4.60;;;;;;;;;;6255740;28;20084;-60
2023/06/07 14:39:46;;;;;;;7.43;4.93;;;;;;;;;;6256815;28;20663;-56
2023/06/07 14:42:47;;;;;;;9.40;5.00;;;;;;;;;;6258294;28;20545;-60
2023/06/07 14:45:47;;;;;;;7.15;4.70;;;;;;;;;;6258551;28;20302;-60
2023/06/07 14:48:49;;;;;;;9.97;5.73;;;;;;;;;;6261988;28;20604;-60
2023/06/07 14:51:49;;;;;;;8.40;4.95;;;;;;;;;;6258946;28;20071;-60
2023/06/07 14:54:50;;;;;;;9.95;5.85;;;;;;;;;;6258034;28;20099;-60
2023/06/07 14:57:51;;;;;;;8.23;5.60;;;;;;;;;;6256497;28;20041;-60
2023/06/07 15:00:52;;;;;;;;;;;;;;;;;;6255283;28;20371;-60
2023/06/07 15:03:52;;;;;;;8.70;5.70;;;;;;;;;;6258061;28;19920;-49
2023/06/07 15:06:53;;;;;;;7.93;5.45;;;;;;;;;;6256816;28;20053;-59
2023/06/07 15:09:54;;;;;;;8.23;5.23;;;;;;;;;;6260644;28;20049;-61
2023/06/07 15:12:55;;;;;;;9.33;6.10;;;;;;;;;;6258483;28;20309;-54
2023/06/07 15:15:55;;;;;;;9.00;6.37;;;;;;;;;;6258928;28;20467;-59
2023/06/07 15:18:56;;;;;;;7.97;5.53;;;;;;;;;;6255521;28;20128;-53
2023/06/07 15:21:57;;;;;;;13.80;6.00;;;;;;;;;;6262965;28;20041;-58
2023/06/07 15:24:57;;;;;;;12.00;6.57;;;;;;;;;;6262775;28;20049;-57
2023/06/07 15:27:58;;;;;;;11.43;6.53;;;;;;;;;;6265740;28;20037;-60
2023/06/07 15:30:59;;;;;;;9.40;6.15;;;;;;;;;;6265700;28;20059;-60
2023/06/07 15:34:00;;;;;;;10.17;6.90;;;;;;;;;;6266426;28;20049;-58
2023/06/07 15:37:01;;;;;;;10.70;6.70;;;;;;;;;;6266612;28;20036;-61
2023/06/07 15:40:01;;;;;;;9.77;6.43;;;;;;;;;;6255576;28;20432;-61
2023/06/07 15:43:02;;;;;;;9.52;6.90;;;;;;;;;;6262132;28;20142;-55
2023/06/07 15:46:03;;;;;;;9.93;6.57;;;;;;;;;;6259823;28;20064;-59
2023/06/07 15:49:03;;;;;;;9.85;6.47;;;;;;;;;;6264856;28;20075;-59
2023/06/07 15:52:04;;;;;;;8.90;6.67;;;;;;;;;;6268253;28;20499;-59
2023/06/07 15:55:05;;;;;;;11.00;7.07;;;;;;;;;;6264166;28;20049;-59
2023/06/07 15:58:06;;;;;;;9.00;6.50;;;;;;;;;;6264323;28;20487;-60
2023/06/07 16:01:06;;;;;;;10.50;7.03;;;;;;;;;;6267035;28;20070;-59
2023/06/07 16:04:07;;;;;;;11.77;7.50;;;;;;;;;;6258436;28;20376;-59
2023/06/07 16:07:09;;;;;;;11.67;7.90;;;;;;;;;;6267393;28;20381;-60
2023/06/07 16:10:10;;;;;;;10.63;7.00;;;;;;;;;;6265631;28;20477;-59
2023/06/07 16:13:10;;;;;;;10.97;6.80;;;;;;;;;;6260962;28;20099;-55
2023/06/07 16:16:11;;;;;;;10.40;6.60;;;;;;;;;;6268816;28;20059;-58
2023/06/07 16:19:12;;;;;;;9.97;7.30;;;;;;;;;;6266177;28;20033;-59
2023/06/07 16:22:12;;;;;;;14.60;9.40;;;;;;;;;;6267367;28;20044;-54
2023/06/07 16:25:13;;;;;;;13.00;8.17;;;;;;;;;;6267528;28;20061;-53
2023/06/07 16:28:15;;;;;;;10.37;6.63;;;;;;;;;;6266922;28;20051;-56
2023/06/07 16:31:16;;;;;;;12.82;6.95;;;;;;;;;;6266292;28;20046;-60
2023/06/07 16:34:16;;;;;;;12.63;8.27;;;;;;;;;;6266448;28;20140;-59
2023/06/07 16:37:17;;;;;;;12.50;7.77;;;;;;;;;;6266739;28;20148;-60
2023/06/07 16:40:17;;;;;;;9.50;7.40;;;;;;;;;;6264792;28;20097;-59
2023/06/07 16:43:18;;;;;;;8.93;6.87;;;;;;;;;;6266464;28;20052;-54
2023/06/07 16:46:19;;;;;;;10.07;7.87;;;;;;;;;;6266515;28;20071;-59
2023/06/07 16:49:19;;;;;;;10.90;8.23;;;;;;;;;;6264393;28;20055;-58
2023/06/07 16:52:20;;;;;;;13.33;8.50;;;;;;;;;;6266060;28;20037;-59
2023/06/07 16:55:21;;;;;;;10.73;7.17;;;;;;;;;;6263570;28;20502;-59
2023/06/07 16:58:23;;;;;;;12.23;7.30;;;;;;;;;;6265027;28;20045;-58
2023/06/07 17:01:24;;;;;;;11.25;8.07;;;;;;;;;;6267296;28;20086;-61
2023/06/07 17:04:25;;;;;;;14.18;7.60;;;;;;;;;;6266632;28;20049;-58
2023/06/07 17:07:25;;;;;;;12.40;7.23;;;;;;;;;;6264387;28;20057;-59
2023/06/07 17:10:30;;;;;;;12.57;8.20;;;;;;;;;;6261633;28;20500;-53
2023/06/07 17:13:31;;;;;;;9.85;6.55;;;;;;;;;;6264277;28;20037;-58
2023/06/07 17:16:31;;;;;;;13.23;6.53;;;;;;;;;;6265794;28;20091;-59
2023/06/07 17:19:32;;;;;;;10.33;6.67;;;;;;;;;;6265179;28;20136;-60
2023/06/07 17:22:32;;;;;;;8.40;6.60;;;;;;;;;;6266215;28;20060;-60
2023/06/07 17:25:34;;;;;;;9.50;6.23;;;;;;;;;;6261430;28;20479;-57
2023/06/07 17:28:34;;;;;;;10.50;6.80;;;;;;;;;;6263823;28;20090;-60
2023/06/07 17:31:35;;;;;;;10.63;6.80;;;;;;;;;;6266211;28;20057;-60
2023/06/07 17:34:36;;;;;;;13.07;8.07;;;;;;;;;;6265778;28;20045;-60
2023/06/07 17:37:37;;;;;;;12.93;8.07;;;;;;;;;;6266711;28;20523;-59
2023/06/07 17:40:37;;;;;;;12.77;8.13;;;;;;;;;;6261836;28;20087;-59
2023/06/07 17:43:38;;;;;;;13.33;6.47;;;;;;;;;;6258793;28;20140;-59
2023/06/07 17:46:38;;;;;;;11.70;5.90;;;;;;;;;;6246519;28;20057;-58
2023/06/07 17:49:39;;;;;;;11.97;7.60;;;;;;;;;;6256268;28;20191;-58
2023/06/07 17:52:40;;;;;;;14.60;8.63;;;;;;;;;;6257902;28;20405;-54
2023/06/07 17:55:43;;;;;;;14.53;8.87;;;;;;;;;;6252834;28;20458;-48